Time;durP1;ratioP1;P1;durP2;ratioP2;P2;SDS_P1;SDS_P2;PMS_P1;PMS_P2;Temp;Humidity;BMP_temperature;BMP_pressure;BME280_temperature;BME280_humidity;BME280_pressure;Samples;Min_cycle;Max_cycle;Signal;HPM_P1;HPM_P2
2021/03/04 00:00:12;;;;;;;34.50;18.02;;;;;;;7.51;47.97;97585.71;1761272;80;25686;-85
2021/03/04 00:02:42;;;;;;;30.23;16.35;;;;;;;7.50;48.05;97578.67;1752880;81;25971;-87
2021/03/04 00:05:12;;;;;;;35.48;18.27;;;;;;;7.48;48.10;97576.71;1752813;81;25691;-87
2021/03/04 00:07:41;;;;;;;30.82;17.20;;;;;;;7.45;48.10;97564.98;1761150;80;26319;-87
2021/03/04 00:10:12;;;;;;;33.45;18.12;;;;;;;7.41;48.14;97562.86;1747968;81;25691;-88
2021/03/04 00:12:41;;;;;;;38.67;20.02;;;;;;;7.36;48.17;97556.73;1727934;81;25880;-88
2021/03/04 00:15:11;;;;;;;40.30;19.75;;;;;;;7.28;48.20;97548.75;1761147;80;28521;-88
2021/03/04 00:17:39;;;;;;;39.08;20.70;;;;;;;7.20;48.27;97548.86;1752700;81;26131;-88
2021/03/04 00:20:09;;;;;;;39.35;19.52;;;;;;;7.14;48.40;97544.22;1752834;81;25734;-89
2021/03/04 00:22:37;;;;;;;36.20;20.32;;;;;;;7.07;48.52;97539.29;1761220;80;26290;-88
2021/03/04 00:25:06;;;;;;;37.93;19.15;;;;;;;7.02;48.68;97537.66;1752910;81;25764;-88
2021/03/04 00:27:33;;;;;;;35.17;19.65;;;;;;;6.99;48.89;97536.70;1761023;80;27482;-88
2021/03/04 00:30:01;;;;;;;40.03;20.15;;;;;;;6.94;48.97;97535.91;1752777;81;26135;-88
2021/03/04 00:32:28;;;;;;;40.55;20.27;;;;;;;6.90;49.09;97538.63;1761116;80;25703;-88
2021/03/04 00:34:55;;;;;;;33.80;18.73;;;;;;;6.87;49.14;97535.00;1752891;81;25573;-88
2021/03/04 00:37:23;;;;;;;39.60;20.43;;;;;;;6.88;49.22;97536.12;1761132;79;25881;-88
2021/03/04 00:39:52;;;;;;;36.40;19.75;;;;;;;6.83;49.36;97541.73;1752737;81;28524;-88
2021/03/04 00:42:19;;;;;;;40.00;21.45;;;;;;;6.77;49.47;97533.91;1761065;80;26368;-88
2021/03/04 00:44:47;;;;;;;39.50;21.87;;;;;;;6.74;49.55;97538.83;1740710;81;25686;-88
2021/03/04 00:47:14;;;;;;;35.48;19.45;;;;;;;6.65;49.63;97532.69;1742063;81;26376;-88
2021/03/04 00:49:41;;;;;;;52.83;25.02;;;;;;;6.57;49.69;97531.95;1750030;80;26268;-89
2021/03/04 00:52:09;;;;;;;54.40;25.97;;;;;;;6.47;49.78;97533.05;1745895;80;27569;-88
2021/03/04 00:54:36;;;;;;;45.03;23.57;;;;;;;6.36;49.93;97532.16;1752834;81;25830;-88
2021/03/04 00:57:04;;;;;;;41.92;20.37;;;;;;;6.28;50.29;97528.73;1761244;80;25885;-88
2021/03/04 00:59:31;;;;;;;37.33;19.57;;;;;;;6.12;50.41;97527.02;1752673;81;25707;-88
2021/03/04 01:01:58;;;;;;;35.70;18.42;;;;;;;5.99;50.56;97532.98;1761073;80;25289;-88
2021/03/04 01:04:26;;;;;;;36.77;19.77;;;;;;;5.91;50.94;97525.52;1752805;81;27545;-88
2021/03/04 01:06:53;;;;;;;33.20;18.55;;;;;;;5.77;51.05;97524.41;1761017;80;25743;-88
2021/03/04 01:09:20;;;;;;;39.35;20.15;;;;;;;5.63;51.42;97518.47;1752842;81;25314;-88
2021/03/04 01:11:48;;;;;;;43.15;22.32;;;;;;;5.37;51.51;97510.27;1759954;80;25755;-88
2021/03/04 01:14:15;;;;;;;39.20;20.77;;;;;;;5.26;51.97;97503.13;1752940;81;25778;-87
2021/03/04 01:16:42;;;;;;;35.83;19.87;;;;;;;5.22;52.19;97498.63;1761012;80;27684;-88
2021/03/04 01:19:10;;;;;;;34.27;19.85;;;;;;;5.19;52.59;97499.00;1752691;81;26309;-88
2021/03/04 01:21:37;;;;;;;36.58;20.35;;;;;;;5.10;52.75;97493.34;1752726;81;25806;-87
2021/03/04 01:24:07;;;;;;;40.45;20.85;;;;;;;5.01;53.04;97483.19;1768863;78;26323;-87
2021/03/04 01:26:35;;;;;;;31.82;18.75;;;;;;;4.93;52.99;97489.09;1774679;79;25815;-87
2021/03/04 01:29:04;;;;;;;32.13;17.37;;;;;;;4.91;53.40;97484.41;1752734;81;27562;-88
2021/03/04 01:31:31;;;;;;;32.00;17.55;;;;;;;4.85;53.48;97479.74;1760977;80;26197;-88
2021/03/04 01:33:58;;;;;;;30.97;17.42;;;;;;;4.79;53.76;97477.27;1752725;81;25767;-87
2021/03/04 01:36:25;;;;;;;32.08;16.93;;;;;;;4.66;53.85;97479.16;1761210;80;26465;-88
2021/03/04 01:38:53;;;;;;;31.10;17.77;;;;;;;4.59;54.17;97475.48;1752724;81;25822;-88
2021/03/04 01:41:20;;;;;;;36.45;19.52;;;;;;;4.45;54.35;97471.37;1772020;79;27341;-88
2021/03/04 01:43:47;;;;;;;38.15;19.92;;;;;;;4.30;54.50;97465.40;1771847;79;25648;-88
2021/03/04 01:46:15;;;;;;;60.33;28.62;;;;;;;4.20;54.77;97458.58;1752709;81;25763;-88
2021/03/04 01:48:43;;;;;;;71.45;30.52;;;;;;;4.16;55.08;97466.59;1752775;81;25896;-88
2021/03/04 01:51:10;;;;;;;69.42;29.95;;;;;;;4.22;55.38;97461.92;1753109;81;25755;-88
2021/03/04 01:53:38;;;;;;;54.63;25.50;;;;;;;4.23;55.38;97461.72;1753466;81;27495;-88
2021/03/04 01:56:06;;;;;;;48.28;26.27;;;;;;;4.25;55.40;97457.55;1761360;80;25812;-88
2021/03/04 01:58:35;;;;;;;45.55;24.37;;;;;;;4.20;55.61;97456.74;1730316;81;25820;-87
2021/03/04 02:02:07;;;;;;;50.67;26.52;;;;;;;4.21;55.75;97455.73;1735771;81;26534;-88
2021/03/04 02:04:34;;;;;;;70.85;31.93;;;;;;;4.21;55.63;97452.23;1724611;82;25826;-88
2021/03/04 02:07:10;;;;;;;63.95;31.10;;;;;;;4.10;55.92;97457.44;1735754;81;27595;-87
2021/03/04 02:09:42;;;;;;;45.52;25.80;;;;;;;4.04;55.93;97446.58;1735705;82;25730;-88
2021/03/04 02:12:26;;;;;;;52.45;25.52;;;;;;;4.03;56.08;97447.58;1735830;82;25771;-87
2021/03/04 02:15:07;;;;;;;48.95;25.00;;;;;;;3.92;56.20;97453.60;1735614;82;26450;-88
2021/03/04 02:17:39;;;;;;;67.47;30.32;;;;;;;3.86;56.31;97451.62;1735929;81;25782;-87
2021/03/04 02:20:18;;;;;;;71.95;30.10;;;;;;;3.85;56.42;97446.45;1735990;82;27606;-87
2021/03/04 02:23:02;;;;;;;58.35;27.75;;;;;;;3.85;56.59;97448.61;1727358;81;25792;-87
2021/03/04 02:28:35;;;;;;;54.75;28.62;;;;;;;3.84;57.18;97448.28;1835421;76;34923;-86
2021/03/04 02:31:06;;;;;;;51.08;27.90;;;;;;;3.75;57.05;97447.92;1784157;78;25856;-86
2021/03/04 02:33:34;;;;;;;59.95;30.00;;;;;;;3.73;57.07;97445.95;1776448;78;27476;-86
2021/03/04 02:36:04;;;;;;;88.97;41.73;;;;;;;3.74;57.16;97441.45;1776394;78;25741;-86
2021/03/04 02:38:32;;;;;;;78.75;39.40;;;;;;;3.75;57.18;97443.92;1795006;78;25795;-87
2021/03/04 02:41:01;;;;;;;63.10;33.13;;;;;;;3.74;57.31;97436.94;1808003;78;26306;-87
2021/03/04 02:43:30;;;;;;;50.23;28.57;;;;;;;3.72;57.41;97441.61;1790733;78;25763;-86
2021/03/04 02:45:59;;;;;;;50.35;26.50;;;;;;;3.68;57.79;97433.59;1784459;78;27489;-86
2021/03/04 02:48:28;;;;;;;49.80;26.15;;;;;;;3.54;57.92;97436.92;1790697;78;25324;-86
2021/03/04 02:50:56;;;;;;;52.58;26.95;;;;;;;3.52;58.10;97430.91;1795640;78;25870;-86
2021/03/04 02:53:24;;;;;;;53.80;26.23;;;;;;;3.50;58.23;97428.41;1776394;78;25732;-86
2021/03/04 02:55:53;;;;;;;59.08;28.25;;;;;;;3.54;58.52;97430.25;1777091;78;26268;-86
2021/03/04 02:58:21;;;;;;;51.60;26.42;;;;;;;3.57;58.64;97424.59;1794285;78;27605;-86
2021/03/04 03:00:49;;;;;;;50.75;26.90;;;;;;;3.59;58.62;97422.59;1794349;78;26083;-88
2021/03/04 03:03:17;;;;;;;48.98;24.43;;;;;;;3.62;58.57;97418.27;1810472;78;25717;-88
2021/03/04 03:05:47;;;;;;;53.10;26.02;;;;;;;3.66;58.57;97412.06;1804223;78;26354;-88
2021/03/04 03:08:17;;;;;;;47.17;24.00;;;;;;;3.62;58.53;97404.38;1811884;78;26319;-88
2021/03/04 03:10:48;;;;;;;46.70;24.30;;;;;;;3.58;58.56;97410.24;1808117;78;27487;-88
2021/03/04 03:13:16;;;;;;;44.05;24.12;;;;;;;3.52;58.52;97413.56;1798572;78;26345;-88
2021/03/04 03:15:44;;;;;;;46.98;24.92;;;;;;;3.49;58.58;97411.26;1803640;78;25790;-88
2021/03/04 03:18:13;;;;;;;49.05;25.08;;;;;;;3.38;58.64;97408.39;1803801;78;25664;-88
2021/03/04 03:20:40;;;;;;;46.92;25.43;;;;;;;3.31;58.74;97410.56;1796063;78;26257;-88
2021/03/04 03:23:07;;;;;;;44.18;22.48;;;;;;;3.19;58.74;97404.22;1819566;77;27464;-88
2021/03/04 03:25:35;;;;;;;52.95;25.72;;;;;;;3.14;58.90;97403.88;1817036;78;25830;-88
2021/03/04 03:28:02;;;;;;;49.73;25.17;;;;;;;3.09;59.00;97393.38;1805601;78;25790;-89
2021/03/04 03:30:30;;;;;;;42.78;23.73;;;;;;;2.96;59.04;97395.19;1795990;78;25681;-88
2021/03/04 03:33:13;;;;;;;53.17;27.05;;;;;;;2.88;59.24;97392.52;1806229;78;25813;-88
2021/03/04 03:35:42;;;;;;;51.70;26.00;;;;;;;2.71;59.43;97390.80;1823047;78;27546;-88
2021/03/04 03:38:10;;;;;;;55.58;26.68;;;;;;;2.69;59.80;97394.95;1809540;78;26137;-89
2021/03/04 03:40:40;;;;;;;50.15;24.95;;;;;;;2.67;59.89;97392.11;1802412;78;25850;-87
2021/03/04 03:43:11;;;;;;;47.53;24.80;;;;;;;2.64;60.03;97390.62;1795395;78;25927;-88
2021/03/04 03:45:45;;;;;;;52.25;26.93;;;;;;;2.58;60.25;97385.09;1798991;78;25775;-89
2021/03/04 03:48:15;;;;;;;53.73;26.52;;;;;;;2.47;60.43;97380.41;1821692;78;27552;-89
2021/03/04 03:50:44;;;;;;;58.73;27.55;;;;;;;2.45;60.78;97380.22;1796807;78;26126;-89
2021/03/04 03:53:14;;;;;;;54.75;28.02;;;;;;;2.38;60.95;97378.71;1792504;78;25292;-88
2021/03/04 03:55:51;;;;;;;56.98;27.25;;;;;;;2.37;61.11;97378.37;1792527;78;25711;-88
2021/03/04 03:58:22;;;;;;;53.52;26.33;;;;;;;2.38;61.16;97381.38;1792722;78;25803;-89
2021/03/04 04:00:52;;;;;;;55.03;26.25;;;;;;;2.30;61.21;97379.99;1803735;78;27404;-89
2021/03/04 04:03:19;;;;;;;62.50;29.15;;;;;;;2.35;61.29;97376.86;1800007;78;25734;-89
2021/03/04 04:05:47;;;;;;;54.05;29.60;;;;;;;2.29;61.28;97381.52;1792619;78;25747;-88
2021/03/04 04:08:15;;;;;;;59.03;31.15;;;;;;;2.30;61.58;97376.00;1792626;78;25801;-88
2021/03/04 04:10:42;;;;;;;59.18;30.27;;;;;;;2.34;61.66;97378.69;1801879;78;25750;-88
2021/03/04 04:13:09;;;;;;;58.08;30.62;;;;;;;2.37;61.71;97377.05;1785882;80;27488;-88
2021/03/04 04:15:36;;;;;;;58.02;29.67;;;;;;;2.40;61.87;97376.73;1800395;78;25750;-88
2021/03/04 04:18:05;;;;;;;56.45;29.27;;;;;;;2.39;62.02;97371.06;1806059;78;25682;-88
2021/03/04 04:20:32;;;;;;;77.32;37.25;;;;;;;2.42;62.20;97365.88;1806096;78;25620;-88
2021/03/04 04:23:00;;;;;;;74.90;37.05;;;;;;;2.37;62.04;97363.72;1804539;78;25871;-88
2021/03/04 04:25:27;;;;;;;83.07;40.17;;;;;;;2.39;62.17;97364.40;1792509;78;27530;-88
2021/03/04 04:27:56;;;;;;;82.20;40.00;;;;;;;2.39;62.16;97357.73;1784845;78;26228;-88
2021/03/04 04:30:25;;;;;;;78.17;40.10;;;;;;;2.35;62.20;97351.55;1775842;78;25716;-88
2021/03/04 04:32:53;;;;;;;89.03;44.25;;;;;;;2.34;62.32;97355.21;1794558;78;26130;-87
2021/03/04 04:35:21;;;;;;;94.17;43.50;;;;;;;2.29;62.39;97347.72;1791474;78;26431;-86
2021/03/04 04:37:49;;;;;;;72.53;36.58;;;;;;;2.29;62.49;97346.89;1793028;78;27488;-87
2021/03/04 04:40:16;;;;;;;90.92;38.50;;;;;;;2.26;62.60;97341.87;1782561;78;26211;-87
2021/03/04 04:42:44;;;;;;;75.87;35.70;;;;;;;2.26;62.84;97349.37;1811820;78;25944;-87
2021/03/04 04:45:11;;;;;;;76.65;34.25;;;;;;;2.30;62.87;97335.20;1816650;78;25837;-87
2021/03/04 04:47:39;;;;;;;78.07;36.38;;;;;;;2.36;62.89;97332.75;1790265;78;25772;-85
2021/03/04 04:50:07;;;;;;;82.50;37.42;;;;;;;2.43;62.94;97330.26;1783491;78;27597;-86
2021/03/04 04:52:35;;;;;;;80.90;38.02;;;;;;;2.50;63.15;97323.30;1784999;78;25719;-87
2021/03/04 04:55:02;;;;;;;99.45;41.02;;;;;;;2.59;63.23;97317.48;1785050;78;25668;-87
2021/03/04 04:57:30;;;;;;;80.77;36.50;;;;;;;2.66;63.32;97320.65;1775663;78;25735;-87
2021/03/04 04:59:57;;;;;;;84.55;37.28;;;;;;;2.72;63.34;97317.84;1791669;78;25686;-87
2021/03/04 05:02:24;;;;;;;91.60;39.88;;;;;;;2.76;63.34;97312.52;1783682;78;27527;-87
2021/03/04 05:04:52;;;;;;;92.08;40.52;;;;;;;2.77;63.33;97311.03;1789144;78;26633;-87
2021/03/04 05:07:19;;;;;;;90.60;37.30;;;;;;;2.75;63.30;97306.86;1797917;78;25762;-87
2021/03/04 05:09:46;;;;;;;83.80;37.55;;;;;;;2.70;63.41;97299.34;1801223;78;26212;-87
2021/03/04 05:12:14;;;;;;;88.40;37.03;;;;;;;2.70;63.54;97293.17;1787011;78;25771;-86
2021/03/04 05:14:41;;;;;;;78.72;37.33;;;;;;;2.74;63.62;97291.86;1803091;78;27552;-88
2021/03/04 05:17:09;;;;;;;76.42;36.60;;;;;;;2.80;63.98;97296.02;1802874;78;25706;-87
2021/03/04 05:19:36;;;;;;;78.52;38.35;;;;;;;2.82;63.65;97292.69;1787684;78;25676;-87
2021/03/04 05:22:04;;;;;;;89.47;40.85;;;;;;;2.74;63.73;97288.70;1810053;78;25821;-87
2021/03/04 05:24:31;;;;;;;91.72;40.67;;;;;;;2.75;63.94;97282.37;1809616;78;25661;-87
2021/03/04 05:26:59;;;;;;;99.83;42.50;;;;;;;2.79;63.95;97280.19;1796435;78;28465;-87
2021/03/04 05:29:26;;;;;;;91.72;41.23;;;;;;;2.83;64.07;97270.37;1806040;78;25727;-87
2021/03/04 05:31:53;;;;;;;84.28;38.58;;;;;;;2.88;64.25;97268.55;1810009;78;25312;-87
2021/03/04 05:34:21;;;;;;;76.15;35.52;;;;;;;2.98;64.48;97267.88;1807577;78;25728;-87
2021/03/04 05:36:48;;;;;;;70.17;34.70;;;;;;;3.06;64.36;97249.69;1788431;78;25756;-87
2021/03/04 05:39:16;;;;;;;74.85;34.73;;;;;;;3.17;64.37;97247.52;1817521;78;28477;-88
2021/03/04 05:41:44;;;;;;;69.17;32.70;;;;;;;3.31;64.35;97249.16;1792166;78;26195;-87
2021/03/04 05:44:12;;;;;;;70.20;34.08;;;;;;;3.46;64.29;97248.80;1812073;78;25688;-87
2021/03/04 05:46:40;;;;;;;73.75;34.30;;;;;;;3.61;64.23;97247.09;1811524;78;25816;-88
2021/03/04 05:49:10;;;;;;;62.35;30.20;;;;;;;3.71;64.06;97242.39;1819431;78;25706;-89
2021/03/04 05:51:40;;;;;;;61.98;32.10;;;;;;;3.81;64.04;97236.34;1790950;78;28343;-88
2021/03/04 05:54:08;;;;;;;66.37;31.80;;;;;;;3.97;63.90;97240.28;1790967;78;25687;-88
2021/03/04 05:56:35;;;;;;;79.60;35.90;;;;;;;4.02;63.62;97242.91;1789254;78;26182;-88
2021/03/04 05:59:03;;;;;;;67.12;33.25;;;;;;;4.03;63.48;97243.24;1779813;78;25846;-88
2021/03/04 06:01:31;;;;;;;70.32;33.18;;;;;;;4.03;63.42;97238.73;1769453;80;25881;-88
2021/03/04 06:03:59;;;;;;;70.15;34.40;;;;;;;4.10;63.43;97243.73;1804491;78;27544;-89
2021/03/04 06:06:27;;;;;;;63.75;34.27;;;;;;;4.16;63.44;97241.67;1795283;78;25756;-88
2021/03/04 06:08:54;;;;;;;63.45;32.58;;;;;;;4.25;63.30;97237.11;1782228;78;25672;-88
2021/03/04 06:11:23;;;;;;;64.53;31.75;;;;;;;4.32;63.21;97232.75;1815943;78;25700;-88
2021/03/04 06:13:51;;;;;;;65.52;32.67;;;;;;;4.37;63.13;97222.84;1810467;78;25820;-88
2021/03/04 06:16:18;;;;;;;62.58;31.57;;;;;;;4.41;63.06;97220.98;1799145;78;27557;-88
2021/03/04 06:18:45;;;;;;;59.10;31.23;;;;;;;4.45;62.99;97225.48;1787857;78;25688;-88
2021/03/04 06:21:26;;;;;;;55.78;29.07;;;;;;;4.53;62.97;97224.08;1803832;78;25762;-88
2021/03/04 06:23:56;;;;;;;57.15;31.12;;;;;;;4.59;62.85;97234.87;1811534;78;25784;-88
2021/03/04 06:26:36;;;;;;;54.83;28.67;;;;;;;4.65;62.83;97236.86;1800472;78;25793;-88
2021/03/04 06:29:18;;;;;;;50.00;26.82;;;;;;;4.74;62.73;97232.27;1788619;78;27548;-87
2021/03/04 06:31:59;;;;;;;52.35;27.70;;;;;;;4.82;62.60;97228.22;1795391;78;32641;-88
2021/03/04 06:34:27;;;;;;;54.55;26.15;;;;;;;4.94;62.43;97225.95;1801923;78;25687;-88
2021/03/04 06:37:04;;;;;;;53.10;26.62;;;;;;;5.07;62.25;97216.27;1788257;78;26398;-88
2021/03/04 06:39:46;;;;;;;54.95;26.23;;;;;;;5.20;62.03;97215.64;1819654;78;25327;-89
2021/03/04 06:42:17;;;;;;;48.48;25.37;;;;;;;5.36;61.78;97212.81;1813477;78;26905;-88
2021/03/04 06:44:51;;;;;;;51.58;25.48;;;;;;;5.53;61.58;97210.80;1780840;78;25845;-87
2021/03/04 06:47:27;;;;;;;50.33;26.02;;;;;;;5.68;61.37;97210.78;1808742;78;25741;-89
2021/03/04 06:49:56;;;;;;;55.50;26.85;;;;;;;5.83;61.18;97207.59;1792395;78;25675;-88
2021/03/04 06:52:28;;;;;;;46.23;25.00;;;;;;;5.92;61.01;97206.49;1812014;78;25702;-88
2021/03/04 06:55:07;;;;;;;47.90;25.95;;;;;;;6.00;60.78;97203.73;1788681;78;27509;-88
2021/03/04 06:57:35;;;;;;;52.53;27.52;;;;;;;6.09;60.58;97207.95;1794681;78;26130;-88
2021/03/04 07:00:04;;;;;;;50.30;26.52;;;;;;;6.19;60.42;97209.50;1775480;78;25762;-87
2021/03/04 07:02:32;;;;;;;52.60;27.13;;;;;;;6.25;60.26;97198.88;1806598;78;25663;-87
2021/03/04 07:05:04;;;;;;;46.30;24.98;;;;;;;6.32;60.12;97202.95;1802956;78;25875;-88
2021/03/04 07:07:32;;;;;;;47.13;25.75;;;;;;;6.37;59.90;97199.20;1781277;78;28660;-87
2021/03/04 07:10:00;;;;;;;49.83;26.97;;;;;;;6.44;59.73;97202.77;1786474;78;26602;-87
2021/03/04 07:12:27;;;;;;;52.30;26.02;;;;;;;6.50;59.62;97204.70;1783210;78;25668;-88
2021/03/04 07:14:55;;;;;;;54.98;28.32;;;;;;;6.55;59.54;97201.44;1775640;78;25787;-87
2021/03/04 07:17:26;;;;;;;58.68;30.70;;;;;;;6.60;59.38;97201.20;1775634;78;25804;-87
2021/03/04 07:20:03;;;;;;;60.12;29.90;;;;;;;6.65;59.21;97197.41;1814001;78;27544;-87
2021/03/04 07:22:33;;;;;;;55.17;28.25;;;;;;;6.73;59.00;97189.25;1802993;78;25823;-88
2021/03/04 07:25:01;;;;;;;56.28;30.17;;;;;;;6.81;58.89;97193.65;1809848;78;25630;-88
2021/03/04 07:27:28;;;;;;;61.02;31.35;;;;;;;6.88;58.65;97194.55;1796341;78;25682;-87
2021/03/04 07:29:56;;;;;;;61.33;29.75;;;;;;;6.95;58.49;97190.57;1805608;78;25797;-87
2021/03/04 07:32:23;;;;;;;53.73;27.75;;;;;;;7.04;58.28;97194.77;1815384;78;27475;-87
2021/03/04 07:34:52;;;;;;;46.20;26.77;;;;;;;7.10;58.06;97191.32;1808793;78;25820;-87
2021/03/04 07:37:20;;;;;;;50.33;26.68;;;;;;;7.18;58.00;97195.19;1813935;78;25730;-88
2021/03/04 07:39:53;;;;;;;52.70;26.23;;;;;;;7.28;57.78;97185.45;1800545;78;26475;-87
2021/03/04 07:42:24;;;;;;;55.17;27.05;;;;;;;7.37;57.74;97180.23;1804679;78;25738;-88
2021/03/04 07:44:51;;;;;;;43.00;24.18;;;;;;;7.46;57.53;97175.88;1806227;78;27474;-88
2021/03/04 07:47:28;;;;;;;45.43;23.60;;;;;;;7.57;57.25;97183.38;1800464;78;25868;-87
2021/03/04 07:49:56;;;;;;;43.00;23.30;;;;;;;7.68;57.04;97171.77;1801651;78;25731;-87
2021/03/04 07:52:26;;;;;;;47.40;23.22;;;;;;;7.83;56.80;97181.87;1819383;78;25764;-88
2021/03/04 07:54:56;;;;;;;45.73;24.07;;;;;;;7.95;56.68;97178.93;1797959;78;25741;-87
2021/03/04 07:57:27;;;;;;;44.65;22.95;;;;;;;8.10;56.72;97183.62;1792454;78;27497;-87
2021/03/04 08:00:04;;;;;;;47.70;25.23;;;;;;;8.28;56.67;97178.53;1792398;78;25763;-87
2021/03/04 08:02:34;;;;;;;57.73;31.52;;;;;;;8.50;56.30;97175.20;1817669;78;25748;-87
2021/03/04 08:05:16;;;;;;;61.40;34.75;;;;;;;8.70;55.96;97177.91;1806032;78;25731;-88
2021/03/04 08:21:06;;;;;;;63.63;38.35;;;;;;;8.98;54.97;97175.88;1715873;80;29727;-87
2021/03/04 08:23:33;;;;;;;63.17;32.80;;;;;;;9.09;54.99;97173.59;1729520;80;25374;-87
2021/03/04 08:26:03;;;;;;;51.48;29.75;;;;;;;9.17;54.51;97162.62;1721459;81;27493;-87
2021/03/04 08:28:30;;;;;;;57.33;31.52;;;;;;;9.25;54.18;97157.02;1749059;80;25699;-87
2021/03/04 08:31:06;;;;;;;60.58;31.15;;;;;;;9.30;54.22;97158.03;1748208;81;25706;-88
2021/03/04 08:33:34;;;;;;;60.95;35.15;;;;;;;9.42;54.03;97160.91;1741707;81;25803;-87
2021/03/04 08:36:02;;;;;;;58.10;31.52;;;;;;;9.51;53.89;97155.63;1748391;81;25754;-88
2021/03/04 08:38:39;;;;;;;54.03;30.23;;;;;;;9.60;53.73;97151.67;1740702;82;27502;-88
2021/03/04 08:41:07;;;;;;;59.10;30.48;;;;;;;9.65;53.43;97142.44;1739974;81;25699;-87
2021/03/04 08:43:34;;;;;;;54.77;30.90;;;;;;;9.78;53.29;97136.70;1736603;82;25804;-86
2021/03/04 08:46:06;;;;;;;58.85;30.00;;;;;;;9.75;53.25;97132.56;1736590;82;25765;-87
2021/03/04 08:48:34;;;;;;;57.53;30.97;;;;;;;9.78;53.43;97129.41;1720345;82;25376;-87
2021/03/04 08:51:04;;;;;;;54.33;31.02;;;;;;;9.87;53.25;97124.62;1736560;81;27514;-87
2021/03/04 08:53:34;;;;;;;50.33;28.20;;;;;;;9.91;53.23;97120.45;1723375;82;26105;-88
2021/03/04 08:56:05;;;;;;;46.28;25.10;;;;;;;10.03;52.85;97125.47;1725260;82;25779;-87
2021/03/04 08:58:39;;;;;;;50.58;27.67;;;;;;;10.16;52.56;97128.11;1745009;81;26401;-88
2021/03/04 09:01:07;;;;;;;55.98;28.23;;;;;;;10.32;52.38;97143.84;1718878;82;25687;-88
2021/03/04 09:03:38;;;;;;;44.15;23.10;;;;;;;10.46;52.12;97133.80;1718865;82;27493;-86
2021/03/04 09:06:12;;;;;;;40.38;21.77;;;;;;;10.50;51.41;97126.10;1718498;82;25845;-88
2021/03/04 09:08:44;;;;;;;33.18;18.25;;;;;;;10.52;50.81;97115.38;1718858;82;25695;-87
2021/03/04 09:11:34;;;;;;;34.43;18.70;;;;;;;10.59;50.42;97118.05;1723770;82;26309;-87
2021/03/04 09:14:10;;;;;;;29.80;16.90;;;;;;;10.80;50.20;97119.84;1741195;81;25759;-89
2021/03/04 09:16:48;;;;;;;30.25;16.80;;;;;;;11.12;49.74;97120.61;1736622;82;27291;-87
2021/03/04 09:19:40;;;;;;;31.30;15.80;;;;;;;11.35;49.34;97114.56;1733929;82;25993;-85
2021/03/04 09:22:12;;;;;;;31.90;15.75;;;;;;;11.65;49.00;97109.27;1716394;82;25778;-86
2021/03/04 09:24:40;;;;;;;31.73;15.08;;;;;;;11.94;47.98;97099.61;1774244;80;26090;-85
2021/03/04 09:27:10;;;;;;;30.02;16.77;;;;;;;12.18;47.94;97097.84;1776018;80;25707;-84
2021/03/04 09:29:42;;;;;;;35.63;18.65;;;;;;;12.47;47.62;97092.94;1759371;80;27499;-84
2021/03/04 09:32:10;;;;;;;35.17;17.45;;;;;;;12.73;47.22;97086.82;1775772;80;26359;-85
2021/03/04 09:34:42;;;;;;;32.90;17.52;;;;;;;12.68;46.18;97086.71;1775498;80;25765;-84
2021/03/04 09:37:27;;;;;;;32.55;18.57;;;;;;;12.62;46.11;97087.92;1775616;80;25860;-84
2021/03/04 09:39:56;;;;;;;38.33;18.57;;;;;;;12.91;46.27;97082.16;1775529;80;25824;-86
2021/03/04 09:42:34;;;;;;;34.38;18.37;;;;;;;13.18;45.99;97078.47;1775788;80;27499;-84
2021/03/04 09:45:11;;;;;;;35.48;18.48;;;;;;;13.24;45.70;97071.30;1771647;80;25825;-85
2021/03/04 09:47:48;;;;;;;34.03;20.15;;;;;;;13.39;45.27;97068.11;1757387;80;25974;-81
2021/03/04 09:50:23;;;;;;;33.13;20.92;;;;;;;13.31;44.68;97067.92;1775346;80;25767;-85
2021/03/04 09:53:08;;;;;;;38.98;21.17;;;;;;;13.46;44.85;97063.38;1775489;80;25683;-84
2021/03/04 09:55:43;;;;;;;41.65;21.62;;;;;;;13.58;44.85;97060.12;1769654;80;27492;-83
2021/03/04 09:58:14;;;;;;;43.00;23.92;;;;;;;13.52;44.29;97052.95;1761417;80;25696;-84
2021/03/04 10:00:45;;;;;;;41.58;23.22;;;;;;;13.62;43.65;97053.16;1758199;80;25669;-84
2021/03/04 10:03:16;;;;;;;36.10;22.23;;;;;;;13.62;43.81;97054.52;1775922;80;25779;-87
2021/03/04 10:05:50;;;;;;;41.77;21.75;;;;;;;13.70;43.79;97066.34;1775429;80;25655;-84
2021/03/04 10:08:18;;;;;;;40.75;23.90;;;;;;;13.72;42.75;97058.80;1759662;80;28531;-84
2021/03/04 10:10:49;;;;;;;37.48;23.15;;;;;;;13.44;43.18;97057.36;1749957;80;25912;-83
2021/03/04 10:13:29;;;;;;;44.00;22.93;;;;;;;13.54;43.77;97049.45;1737391;80;25717;-82
2021/03/04 10:15:56;;;;;;;40.33;22.00;;;;;;;13.78;43.69;97048.86;1747670;81;25805;-83
2021/03/04 10:18:24;;;;;;;37.73;20.50;;;;;;;13.98;43.29;97047.93;1742562;80;25792;-85
2021/03/04 10:20:52;;;;;;;36.83;22.55;;;;;;;14.11;42.96;97044.11;1744503;81;27512;-84
2021/03/04 10:23:19;;;;;;;33.90;20.70;;;;;;;14.20;43.03;97048.90;1739704;81;26292;-82
2021/03/04 10:25:48;;;;;;;40.03;24.05;;;;;;;14.27;42.64;97046.02;1749667;81;25701;-85
2021/03/04 10:28:16;;;;;;;34.75;21.23;;;;;;;14.04;42.21;97048.30;1736261;82;25733;-82
2021/03/04 10:30:43;;;;;;;36.42;19.10;;;;;;;14.08;42.40;97039.16;1720755;82;25874;-84
2021/03/04 10:33:11;;;;;;;35.38;22.05;;;;;;;14.24;42.29;97029.71;1740271;82;27506;-83
2021/03/04 10:35:39;;;;;;;39.73;22.17;;;;;;;14.23;42.11;97025.88;1732571;81;25855;-84
2021/03/04 10:38:06;;;;;;;36.10;20.25;;;;;;;14.33;42.28;97020.09;1724011;81;25795;-85
2021/03/04 10:40:33;;;;;;;34.92;19.12;;;;;;;14.50;41.66;97030.17;1738407;82;26137;-83
2021/03/04 10:43:01;;;;;;;35.98;21.90;;;;;;;14.39;41.08;97030.00;1739774;82;25833;-83
2021/03/04 10:45:29;;;;;;;34.73;20.48;;;;;;;14.18;41.24;97024.41;1723180;82;27507;-85
2021/03/04 10:47:56;;;;;;;34.18;19.65;;;;;;;14.01;40.95;97025.19;1726724;82;25401;-85
2021/03/04 10:50:24;;;;;;;36.45;20.85;;;;;;;13.90;41.26;97024.70;1741706;82;25793;-84
2021/03/04 10:52:52;;;;;;;40.23;22.25;;;;;;;13.99;41.34;97017.02;1746191;82;25736;-85
2021/03/04 10:55:19;;;;;;;35.45;21.12;;;;;;;14.10;41.28;97020.75;1733556;81;25894;-85
2021/03/04 10:57:47;;;;;;;34.92;20.85;;;;;;;14.10;41.32;97011.25;1722095;82;28569;-84
2021/03/04 11:00:15;;;;;;;38.95;22.35;;;;;;;14.17;41.38;97003.23;1720793;82;25370;-84
2021/03/04 11:02:43;;;;;;;37.75;21.30;;;;;;;14.13;41.23;96999.34;1726581;82;25695;-83
2021/03/04 11:05:12;;;;;;;35.63;20.77;;;;;;;14.01;41.21;96998.05;1735602;82;26419;-85
2021/03/04 11:07:39;;;;;;;34.60;19.37;;;;;;;13.93;41.24;96997.63;1725235;82;25806;-83
2021/03/04 11:10:09;;;;;;;35.83;21.25;;;;;;;13.73;41.26;96995.34;1729121;82;28572;-84
2021/03/04 11:12:37;;;;;;;44.20;22.98;;;;;;;13.72;41.40;96998.30;1740280;82;26037;-85
2021/03/04 11:15:06;;;;;;;41.92;21.45;;;;;;;13.70;41.45;96987.69;1731473;82;26321;-83
2021/03/04 11:17:34;;;;;;;35.38;19.32;;;;;;;13.62;41.54;96986.72;1731337;82;25841;-82
2021/03/04 11:20:01;;;;;;;36.30;21.23;;;;;;;13.69;41.63;96983.32;1739587;81;25760;-85
2021/03/04 11:22:29;;;;;;;36.03;22.20;;;;;;;13.66;41.67;96972.95;1747241;81;28653;-84
2021/03/04 11:24:56;;;;;;;33.50;20.90;;;;;;;13.71;42.00;96967.64;1744223;81;25807;-84
2021/03/04 11:27:24;;;;;;;38.88;19.62;;;;;;;13.81;41.76;96968.36;1732235;81;25354;-86
2021/03/04 11:29:52;;;;;;;35.98;19.75;;;;;;;13.84;41.37;96961.92;1731941;81;26191;-85
2021/03/04 11:32:21;;;;;;;35.88;19.37;;;;;;;13.82;41.16;96956.44;1752195;81;25313;-82
2021/03/04 11:34:48;;;;;;;29.40;17.70;;;;;;;13.83;41.33;96950.78;1745090;81;27498;-85
2021/03/04 11:37:16;;;;;;;32.98;18.98;;;;;;;13.92;40.86;96945.24;1744338;81;25819;-85
2021/03/04 11:39:44;;;;;;;32.85;20.10;;;;;;;13.92;40.76;96943.89;1744044;81;25687;-85
2021/03/04 11:42:12;;;;;;;37.65;22.35;;;;;;;13.93;41.19;96933.33;1744400;81;26152;-86
2021/03/04 11:44:39;;;;;;;34.98;20.37;;;;;;;13.86;41.35;96931.31;1756032;80;25782;-85
2021/03/04 11:47:07;;;;;;;35.33;20.15;;;;;;;13.83;41.33;96925.01;1746554;81;27498;-83
2021/03/04 11:49:35;;;;;;;37.80;20.72;;;;;;;13.87;41.14;96926.70;1735576;81;25894;-84
2021/03/04 11:52:03;;;;;;;36.80;20.80;;;;;;;13.70;40.99;96925.30;1742118;81;25861;-83